Terminal Aerodrome Forecast
Issued by NWS

Home | Current Version | Previous Version | Text Only | Print | Product List | Glossary Off
Versions: 1 2 3 4 5 6 7 8 9 10 11 12 13 14 15 16

000
FTUS43 KUNR 291626 AAA
TAFGCC
TAF AMD
KGCC 291626Z 2916/3012 34010KT P6SM OVC010
     FM292100 01009KT P6SM BKN025
     FM292300 02008KT P6SM SCT250
     FM300300 17006KT P6SM SKC=

USA.gov is the U.S. government's official web portal to all federal, state and local government web resources and services.